sensor_id;sensor_type;location;lat;lon;timestamp;P1;durP1;ratioP1;P2;durP2;ratioP2
8094;SDS011;4090;49.270;8.696;2022-07-17T00:00:39;3.90;;;3.55;;
8094;SDS011;4090;49.270;8.696;2022-07-17T00:03:22;5.75;;;3.72;;
8094;SDS011;4090;49.270;8.696;2022-07-17T00:06:04;4.50;;;3.30;;
8094;SDS011;4090;49.270;8.696;2022-07-17T00:08:46;5.15;;;3.60;;
8094;SDS011;4090;49.270;8.696;2022-07-17T00:11:28;6.28;;;3.47;;
8094;SDS011;4090;49.270;8.696;2022-07-17T00:14:10;4.10;;;3.50;;
8094;SDS011;4090;49.270;8.696;2022-07-17T00:16:53;4.90;;;3.40;;
8094;SDS011;4090;49.270;8.696;2022-07-17T00:19:36;4.43;;;3.33;;
8094;SDS011;4090;49.270;8.696;2022-07-17T00:22:18;4.38;;;3.90;;
8094;SDS011;4090;49.270;8.696;2022-07-17T00:25:00;4.68;;;3.95;;
8094;SDS011;4090;49.270;8.696;2022-07-17T00:27:42;4.32;;;3.47;;
8094;SDS011;4090;49.270;8.696;2022-07-17T00:30:24;3.90;;;3.47;;
8094;SDS011;4090;49.270;8.696;2022-07-17T00:33:08;3.60;;;3.20;;
8094;SDS011;4090;49.270;8.696;2022-07-17T00:35:50;5.38;;;3.65;;
8094;SDS011;4090;49.270;8.696;2022-07-17T00:38:31;4.53;;;3.55;;
8094;SDS011;4090;49.270;8.696;2022-07-17T00:41:14;3.67;;;3.35;;
8094;SDS011;4090;49.270;8.696;2022-07-17T00:44:02;6.25;;;3.58;;
8094;SDS011;4090;49.270;8.696;2022-07-17T00:46:44;4.03;;;3.63;;
8094;SDS011;4090;49.270;8.696;2022-07-17T00:49:27;3.70;;;3.40;;
8094;SDS011;4090;49.270;8.696;2022-07-17T00:52:10;6.00;;;3.83;;
8094;SDS011;4090;49.270;8.696;2022-07-17T00:54:53;4.13;;;3.58;;
8094;SDS011;4090;49.270;8.696;2022-07-17T00:57:38;3.83;;;3.35;;
8094;SDS011;4090;49.270;8.696;2022-07-17T01:00:23;3.88;;;2.83;;
8094;SDS011;4090;49.270;8.696;2022-07-17T01:03:05;3.53;;;2.80;;
8094;SDS011;4090;49.270;8.696;2022-07-17T01:05:51;3.83;;;2.22;;
8094;SDS011;4090;49.270;8.696;2022-07-17T01:08:33;2.45;;;2.25;;
8094;SDS011;4090;49.270;8.696;2022-07-17T01:11:16;3.30;;;2.00;;
8094;SDS011;4090;49.270;8.696;2022-07-17T01:13:58;3.28;;;2.33;;
8094;SDS011;4090;49.270;8.696;2022-07-17T01:16:39;2.67;;;2.10;;
8094;SDS011;4090;49.270;8.696;2022-07-17T01:19:22;2.67;;;2.10;;
8094;SDS011;4090;49.270;8.696;2022-07-17T01:22:05;5.40;;;2.50;;
8094;SDS011;4090;49.270;8.696;2022-07-17T01:24:47;4.57;;;2.42;;
8094;SDS011;4090;49.270;8.696;2022-07-17T01:27:29;2.42;;;2.22;;
8094;SDS011;4090;49.270;8.696;2022-07-17T01:30:10;3.50;;;2.35;;
8094;SDS011;4090;49.270;8.696;2022-07-17T01:32:52;3.70;;;2.28;;
8094;SDS011;4090;49.270;8.696;2022-07-17T01:35:34;2.65;;;2.42;;
8094;SDS011;4090;49.270;8.696;2022-07-17T01:38:18;2.67;;;2.00;;
8094;SDS011;4090;49.270;8.696;2022-07-17T01:41:00;3.20;;;2.00;;
8094;SDS011;4090;49.270;8.696;2022-07-17T01:43:42;2.15;;;1.95;;
8094;SDS011;4090;49.270;8.696;2022-07-17T01:46:24;2.85;;;1.92;;
8094;SDS011;4090;49.270;8.696;2022-07-17T01:49:06;2.80;;;1.90;;
8094;SDS011;4090;49.270;8.696;2022-07-17T01:51:47;5.43;;;2.60;;
8094;SDS011;4090;49.270;8.696;2022-07-17T01:54:31;2.30;;;2.10;;
8094;SDS011;4090;49.270;8.696;2022-07-17T01:57:14;4.47;;;2.20;;
8094;SDS011;4090;49.270;8.696;2022-07-17T01:59:56;2.97;;;2.05;;
8094;SDS011;4090;49.270;8.696;2022-07-17T02:02:38;2.45;;;2.20;;
8094;SDS011;4090;49.270;8.696;2022-07-17T02:05:20;2.10;;;1.90;;
8094;SDS011;4090;49.270;8.696;2022-07-17T02:08:02;2.25;;;1.90;;
8094;SDS011;4090;49.270;8.696;2022-07-17T02:10:45;2.53;;;2.10;;
8094;SDS011;4090;49.270;8.696;2022-07-17T02:13:27;2.92;;;2.00;;
8094;SDS011;4090;49.270;8.696;2022-07-17T02:16:09;2.35;;;1.90;;
8094;SDS011;4090;49.270;8.696;2022-07-17T02:18:51;3.00;;;2.08;;
8094;SDS011;4090;49.270;8.696;2022-07-17T02:21:35;2.15;;;1.98;;
8094;SDS011;4090;49.270;8.696;2022-07-17T02:24:17;2.10;;;1.88;;
8094;SDS011;4090;49.270;8.696;2022-07-17T02:27:00;1.85;;;1.73;;
8094;SDS011;4090;49.270;8.696;2022-07-17T02:29:42;1.83;;;1.70;;
8094;SDS011;4090;49.270;8.696;2022-07-17T02:32:24;3.85;;;1.80;;
8094;SDS011;4090;49.270;8.696;2022-07-17T02:35:06;1.92;;;1.65;;
8094;SDS011;4090;49.270;8.696;2022-07-17T02:37:49;1.90;;;1.73;;
8094;SDS011;4090;49.270;8.696;2022-07-17T02:40:31;2.45;;;1.80;;
8094;SDS011;4090;49.270;8.696;2022-07-17T02:43:14;2.95;;;1.70;;
8094;SDS011;4090;49.270;8.696;2022-07-17T02:45:56;2.72;;;2.10;;
8094;SDS011;4090;49.270;8.696;2022-07-17T02:48:38;2.58;;;1.80;;
8094;SDS011;4090;49.270;8.696;2022-07-17T02:51:20;4.28;;;2.00;;
8094;SDS011;4090;49.270;8.696;2022-07-17T02:54:02;2.42;;;1.73;;
8094;SDS011;4090;49.270;8.696;2022-07-17T02:56:43;3.20;;;1.60;;
8094;SDS011;4090;49.270;8.696;2022-07-17T02:59:27;4.00;;;1.83;;
8094;SDS011;4090;49.270;8.696;2022-07-17T03:02:09;2.40;;;1.60;;
8094;SDS011;4090;49.270;8.696;2022-07-17T03:04:51;2.60;;;1.95;;
8094;SDS011;4090;49.270;8.696;2022-07-17T03:07:33;1.70;;;1.60;;
8094;SDS011;4090;49.270;8.696;2022-07-17T03:10:15;3.53;;;1.85;;
8094;SDS011;4090;49.270;8.696;2022-07-17T03:12:57;2.13;;;1.63;;
8094;SDS011;4090;49.270;8.696;2022-07-17T03:15:40;1.80;;;1.60;;
8094;SDS011;4090;49.270;8.696;2022-07-17T03:18:22;1.98;;;1.67;;
8094;SDS011;4090;49.270;8.696;2022-07-17T03:21:04;2.05;;;1.58;;
8094;SDS011;4090;49.270;8.696;2022-07-17T03:23:46;2.75;;;1.80;;
8094;SDS011;4090;49.270;8.696;2022-07-17T03:26:28;2.92;;;1.90;;
8094;SDS011;4090;49.270;8.696;2022-07-17T03:29:10;2.22;;;1.70;;
8094;SDS011;4090;49.270;8.696;2022-07-17T03:31:53;2.65;;;1.90;;
8094;SDS011;4090;49.270;8.696;2022-07-17T03:34:35;2.60;;;1.65;;
8094;SDS011;4090;49.270;8.696;2022-07-17T03:37:16;4.53;;;1.70;;
8094;SDS011;4090;49.270;8.696;2022-07-17T03:39:58;2.72;;;1.55;;
8094;SDS011;4090;49.270;8.696;2022-07-17T03:42:40;3.13;;;1.90;;
8094;SDS011;4090;49.270;8.696;2022-07-17T03:45:22;1.85;;;1.42;;
8094;SDS011;4090;49.270;8.696;2022-07-17T03:48:05;2.05;;;1.80;;
8094;SDS011;4090;49.270;8.696;2022-07-17T03:50:47;1.98;;;1.40;;
8094;SDS011;4090;49.270;8.696;2022-07-17T03:53:29;2.67;;;1.52;;
8094;SDS011;4090;49.270;8.696;2022-07-17T03:56:11;2.92;;;1.95;;
8094;SDS011;4090;49.270;8.696;2022-07-17T03:58:53;4.00;;;1.73;;
8094;SDS011;4090;49.270;8.696;2022-07-17T04:01:35;2.58;;;1.52;;
8094;SDS011;4090;49.270;8.696;2022-07-17T04:04:18;2.30;;;1.60;;
8094;SDS011;4090;49.270;8.696;2022-07-17T04:07:00;2.97;;;1.80;;
8094;SDS011;4090;49.270;8.696;2022-07-17T04:09:42;1.83;;;1.63;;
8094;SDS011;4090;49.270;8.696;2022-07-17T04:12:24;1.70;;;1.60;;
8094;SDS011;4090;49.270;8.696;2022-07-17T04:15:07;3.38;;;1.60;;
8094;SDS011;4090;49.270;8.696;2022-07-17T04:17:50;1.70;;;1.40;;
8094;SDS011;4090;49.270;8.696;2022-07-17T04:20:33;2.53;;;1.63;;
8094;SDS011;4090;49.270;8.696;2022-07-17T04:23:15;1.95;;;1.50;;
8094;SDS011;4090;49.270;8.696;2022-07-17T04:25:57;2.42;;;1.63;;
8094;SDS011;4090;49.270;8.696;2022-07-17T04:28:39;1.83;;;1.58;;
8094;SDS011;4090;49.270;8.696;2022-07-17T04:31:21;2.67;;;1.90;;
8094;SDS011;4090;49.270;8.696;2022-07-17T04:34:03;1.92;;;1.55;;
8094;SDS011;4090;49.270;8.696;2022-07-17T04:36:46;3.72;;;1.77;;
8094;SDS011;4090;49.270;8.696;2022-07-17T04:39:28;2.88;;;1.80;;
8094;SDS011;4090;49.270;8.696;2022-07-17T04:42:10;1.67;;;1.58;;
8094;SDS011;4090;49.270;8.696;2022-07-17T04:44:52;1.80;;;1.33;;
8094;SDS011;4090;49.270;8.696;2022-07-17T04:47:34;1.73;;;1.58;;
8094;SDS011;4090;49.270;8.696;2022-07-17T04:50:16;3.90;;;1.55;;
8094;SDS011;4090;49.270;8.696;2022-07-17T04:53:00;2.38;;;1.58;;
8094;SDS011;4090;49.270;8.696;2022-07-17T04:55:42;2.47;;;1.63;;
8094;SDS011;4090;49.270;8.696;2022-07-17T04:58:23;4.57;;;1.90;;
8094;SDS011;4090;49.270;8.696;2022-07-17T05:01:05;2.83;;;1.30;;
8094;SDS011;4090;49.270;8.696;2022-07-17T05:03:47;2.88;;;1.50;;
8094;SDS011;4090;49.270;8.696;2022-07-17T05:06:29;2.97;;;1.60;;
8094;SDS011;4090;49.270;8.696;2022-07-17T05:09:12;3.38;;;1.42;;
8094;SDS011;4090;49.270;8.696;2022-07-17T05:11:54;4.90;;;1.50;;
8094;SDS011;4090;49.270;8.696;2022-07-17T05:14:36;7.88;;;2.40;;
8094;SDS011;4090;49.270;8.696;2022-07-17T05:17:18;1.67;;;1.30;;
8094;SDS011;4090;49.270;8.696;2022-07-17T05:20:00;2.28;;;1.55;;
8094;SDS011;4090;49.270;8.696;2022-07-17T05:22:42;4.22;;;1.50;;
8094;SDS011;4090;49.270;8.696;2022-07-17T05:25:25;3.13;;;1.50;;
8094;SDS011;4090;49.270;8.696;2022-07-17T05:28:07;3.65;;;1.58;;
8094;SDS011;4090;49.270;8.696;2022-07-17T05:30:49;2.97;;;1.20;;
8094;SDS011;4090;49.270;8.696;2022-07-17T05:33:31;3.03;;;1.73;;
8094;SDS011;4090;49.270;8.696;2022-07-17T05:36:13;3.42;;;1.67;;
8094;SDS011;4090;49.270;8.696;2022-07-17T05:38:55;3.15;;;1.20;;
8094;SDS011;4090;49.270;8.696;2022-07-17T05:41:38;1.70;;;1.42;;
8094;SDS011;4090;49.270;8.696;2022-07-17T05:44:20;1.75;;;1.42;;
8094;SDS011;4090;49.270;8.696;2022-07-17T05:47:02;3.33;;;1.60;;
8094;SDS011;4090;49.270;8.696;2022-07-17T05:49:43;3.42;;;1.38;;
8094;SDS011;4090;49.270;8.696;2022-07-17T05:52:25;1.73;;;1.50;;
8094;SDS011;4090;49.270;8.696;2022-07-17T05:55:07;1.90;;;1.25;;
8094;SDS011;4090;49.270;8.696;2022-07-17T05:57:51;2.88;;;1.40;;
8094;SDS011;4090;49.270;8.696;2022-07-17T06:00:34;2.17;;;1.50;;
8094;SDS011;4090;49.270;8.696;2022-07-17T06:03:16;3.13;;;1.63;;
8094;SDS011;4090;49.270;8.696;2022-07-17T06:05:58;2.08;;;1.50;;
8094;SDS011;4090;49.270;8.696;2022-07-17T06:08:40;3.38;;;1.50;;
8094;SDS011;4090;49.270;8.696;2022-07-17T06:11:22;2.42;;;1.58;;
8094;SDS011;4090;49.270;8.696;2022-07-17T06:14:05;1.77;;;1.30;;
8094;SDS011;4090;49.270;8.696;2022-07-17T06:16:47;3.38;;;1.30;;
8094;SDS011;4090;49.270;8.696;2022-07-17T06:19:28;3.67;;;1.60;;
8094;SDS011;4090;49.270;8.696;2022-07-17T06:22:10;3.58;;;1.42;;
8094;SDS011;4090;49.270;8.696;2022-07-17T06:24:52;4.07;;;1.58;;
8094;SDS011;4090;49.270;8.696;2022-07-17T06:27:34;1.77;;;1.42;;
8094;SDS011;4090;49.270;8.696;2022-07-17T06:30:18;3.22;;;1.50;;
8094;SDS011;4090;49.270;8.696;2022-07-17T06:33:00;3.25;;;1.55;;
8094;SDS011;4090;49.270;8.696;2022-07-17T06:35:42;5.15;;;1.83;;
8094;SDS011;4090;49.270;8.696;2022-07-17T06:38:24;4.93;;;1.50;;
8094;SDS011;4090;49.270;8.696;2022-07-17T06:41:05;1.40;;;1.30;;
8094;SDS011;4090;49.270;8.696;2022-07-17T06:43:47;2.60;;;1.40;;
8094;SDS011;4090;49.270;8.696;2022-07-17T06:46:31;2.15;;;1.63;;
8094;SDS011;4090;49.270;8.696;2022-07-17T06:49:12;2.58;;;1.40;;
8094;SDS011;4090;49.270;8.696;2022-07-17T06:51:54;1.38;;;1.27;;
8094;SDS011;4090;49.270;8.696;2022-07-17T06:54:36;1.40;;;1.30;;
8094;SDS011;4090;49.270;8.696;2022-07-17T06:57:18;4.00;;;1.25;;
8094;SDS011;4090;49.270;8.696;2022-07-17T07:00:00;3.88;;;1.50;;
8094;SDS011;4090;49.270;8.696;2022-07-17T07:02:43;3.30;;;1.60;;
8094;SDS011;4090;49.270;8.696;2022-07-17T07:05:25;2.42;;;1.20;;
8094;SDS011;4090;49.270;8.696;2022-07-17T07:08:07;1.40;;;1.20;;
8094;SDS011;4090;49.270;8.696;2022-07-17T07:10:49;1.40;;;1.30;;
8094;SDS011;4090;49.270;8.696;2022-07-17T07:13:31;4.40;;;1.52;;
8094;SDS011;4090;49.270;8.696;2022-07-17T07:16:13;2.45;;;1.45;;
8094;SDS011;4090;49.270;8.696;2022-07-17T07:18:56;1.70;;;1.20;;
8094;SDS011;4090;49.270;8.696;2022-07-17T07:21:38;3.55;;;1.50;;
8094;SDS011;4090;49.270;8.696;2022-07-17T07:24:19;3.22;;;1.58;;
8094;SDS011;4090;49.270;8.696;2022-07-17T07:27:01;1.42;;;1.30;;
8094;SDS011;4090;49.270;8.696;2022-07-17T07:29:44;3.53;;;1.55;;
8094;SDS011;4090;49.270;8.696;2022-07-17T07:32:26;2.83;;;1.40;;
8094;SDS011;4090;49.270;8.696;2022-07-17T07:35:09;1.60;;;1.40;;
8094;SDS011;4090;49.270;8.696;2022-07-17T07:37:51;2.28;;;1.42;;
8094;SDS011;4090;49.270;8.696;2022-07-17T07:40:33;2.78;;;1.60;;
8094;SDS011;4090;49.270;8.696;2022-07-17T07:43:16;2.00;;;1.30;;
8094;SDS011;4090;49.270;8.696;2022-07-17T07:45:58;4.97;;;1.70;;
8094;SDS011;4090;49.270;8.696;2022-07-17T07:48:40;4.47;;;1.80;;
8094;SDS011;4090;49.270;8.696;2022-07-17T07:51:23;3.95;;;1.60;;
8094;SDS011;4090;49.270;8.696;2022-07-17T07:54:05;2.33;;;1.33;;
8094;SDS011;4090;49.270;8.696;2022-07-17T07:56:47;1.85;;;1.30;;
8094;SDS011;4090;49.270;8.696;2022-07-17T07:59:29;2.88;;;1.55;;
8094;SDS011;4090;49.270;8.696;2022-07-17T08:02:12;5.22;;;1.67;;
8094;SDS011;4090;49.270;8.696;2022-07-17T08:04:54;2.28;;;1.60;;
8094;SDS011;4090;49.270;8.696;2022-07-17T08:07:37;3.97;;;1.50;;
8094;SDS011;4090;49.270;8.696;2022-07-17T08:10:19;3.53;;;1.40;;
8094;SDS011;4090;49.270;8.696;2022-07-17T08:13:01;2.75;;;1.55;;
8094;SDS011;4090;49.270;8.696;2022-07-17T08:15:43;1.48;;;1.38;;
8094;SDS011;4090;49.270;8.696;2022-07-17T08:18:25;3.90;;;1.50;;
8094;SDS011;4090;49.270;8.696;2022-07-17T08:21:07;1.65;;;1.38;;
8094;SDS011;4090;49.270;8.696;2022-07-17T08:23:50;1.33;;;1.23;;
8094;SDS011;4090;49.270;8.696;2022-07-17T08:26:32;1.83;;;1.42;;
8094;SDS011;4090;49.270;8.696;2022-07-17T08:29:14;2.42;;;1.30;;
8094;SDS011;4090;49.270;8.696;2022-07-17T08:31:56;11.52;;;2.15;;
8094;SDS011;4090;49.270;8.696;2022-07-17T08:34:38;1.83;;;1.40;;
8094;SDS011;4090;49.270;8.696;2022-07-17T08:37:20;2.08;;;1.30;;
8094;SDS011;4090;49.270;8.696;2022-07-17T08:40:04;1.70;;;1.60;;
8094;SDS011;4090;49.270;8.696;2022-07-17T08:42:46;1.67;;;1.23;;
8094;SDS011;4090;49.270;8.696;2022-07-17T08:45:29;3.30;;;1.40;;
8094;SDS011;4090;49.270;8.696;2022-07-17T08:48:12;1.30;;;1.20;;
8094;SDS011;4090;49.270;8.696;2022-07-17T08:50:58;2.30;;;1.48;;
8094;SDS011;4090;49.270;8.696;2022-07-17T08:53:41;2.35;;;1.38;;
8094;SDS011;4090;49.270;8.696;2022-07-17T08:56:25;5.78;;;1.63;;
8094;SDS011;4090;49.270;8.696;2022-07-17T08:59:09;1.65;;;1.50;;
8094;SDS011;4090;49.270;8.696;2022-07-17T09:01:51;3.47;;;1.27;;
8094;SDS011;4090;49.270;8.696;2022-07-17T09:04:33;2.17;;;1.25;;
8094;SDS011;4090;49.270;8.696;2022-07-17T09:07:15;1.85;;;1.33;;
8094;SDS011;4090;49.270;8.696;2022-07-17T09:09:56;1.67;;;1.35;;
8094;SDS011;4090;49.270;8.696;2022-07-17T09:12:40;1.42;;;1.33;;
8094;SDS011;4090;49.270;8.696;2022-07-17T09:15:22;1.50;;;1.40;;
8094;SDS011;4090;49.270;8.696;2022-07-17T09:18:04;1.85;;;1.30;;
8094;SDS011;4090;49.270;8.696;2022-07-17T09:20:47;3.38;;;1.50;;
8094;SDS011;4090;49.270;8.696;2022-07-17T09:23:30;2.40;;;1.60;;
8094;SDS011;4090;49.270;8.696;2022-07-17T09:26:12;3.38;;;1.52;;
8094;SDS011;4090;49.270;8.696;2022-07-17T09:28:55;2.17;;;1.35;;
8094;SDS011;4090;49.270;8.696;2022-07-17T09:31:37;2.78;;;1.52;;
8094;SDS011;4090;49.270;8.696;2022-07-17T09:34:19;1.88;;;1.40;;
8094;SDS011;4090;49.270;8.696;2022-07-17T09:37:02;1.70;;;1.30;;
8094;SDS011;4090;49.270;8.696;2022-07-17T09:39:44;1.63;;;1.25;;
8094;SDS011;4090;49.270;8.696;2022-07-17T09:42:27;3.05;;;1.35;;
8094;SDS011;4090;49.270;8.696;2022-07-17T09:45:11;2.60;;;1.35;;
8094;SDS011;4090;49.270;8.696;2022-07-17T09:47:53;2.10;;;1.48;;
8094;SDS011;4090;49.270;8.696;2022-07-17T09:50:37;1.60;;;1.33;;
8094;SDS011;4090;49.270;8.696;2022-07-17T09:53:19;1.75;;;1.42;;
8094;SDS011;4090;49.270;8.696;2022-07-17T09:56:01;2.85;;;1.40;;
8094;SDS011;4090;49.270;8.696;2022-07-17T09:58:45;1.77;;;1.42;;
8094;SDS011;4090;49.270;8.696;2022-07-17T10:01:31;2.42;;;1.52;;
8094;SDS011;4090;49.270;8.696;2022-07-17T10:04:14;1.30;;;1.20;;
8094;SDS011;4090;49.270;8.696;2022-07-17T10:06:57;2.55;;;1.25;;
8094;SDS011;4090;49.270;8.696;2022-07-17T10:09:39;1.58;;;1.48;;
8094;SDS011;4090;49.270;8.696;2022-07-17T10:12:26;7.22;;;2.28;;
8094;SDS011;4090;49.270;8.696;2022-07-17T10:15:08;2.00;;;1.55;;
8094;SDS011;4090;49.270;8.696;2022-07-17T10:18:02;2.40;;;1.40;;
8094;SDS011;4090;49.270;8.696;2022-07-17T10:20:44;3.03;;;1.95;;
8094;SDS011;4090;49.270;8.696;2022-07-17T10:23:26;2.00;;;1.40;;
8094;SDS011;4090;49.270;8.696;2022-07-17T10:26:08;1.20;;;1.10;;
8094;SDS011;4090;49.270;8.696;2022-07-17T10:28:50;1.63;;;1.52;;
8094;SDS011;4090;49.270;8.696;2022-07-17T10:31:32;2.65;;;1.80;;
8094;SDS011;4090;49.270;8.696;2022-07-17T10:34:16;1.80;;;1.50;;
8094;SDS011;4090;49.270;8.696;2022-07-17T10:36:58;1.63;;;1.38;;
8094;SDS011;4090;49.270;8.696;2022-07-17T10:39:39;1.48;;;1.27;;
8094;SDS011;4090;49.270;8.696;2022-07-17T10:42:38;3.08;;;1.30;;
8094;SDS011;4090;49.270;8.696;2022-07-17T10:45:41;2.08;;;1.50;;
8094;SDS011;4090;49.270;8.696;2022-07-17T10:48:26;2.45;;;1.60;;
8094;SDS011;4090;49.270;8.696;2022-07-17T10:51:09;3.03;;;1.40;;
8094;SDS011;4090;49.270;8.696;2022-07-17T10:53:52;3.55;;;1.50;;
8094;SDS011;4090;49.270;8.696;2022-07-17T10:56:38;1.50;;;1.40;;
8094;SDS011;4090;49.270;8.696;2022-07-17T10:59:21;3.50;;;1.60;;
8094;SDS011;4090;49.270;8.696;2022-07-17T11:02:03;1.48;;;1.38;;
8094;SDS011;4090;49.270;8.696;2022-07-17T11:04:44;1.95;;;1.52;;
8094;SDS011;4090;49.270;8.696;2022-07-17T11:07:28;1.63;;;1.40;;
8094;SDS011;4090;49.270;8.696;2022-07-17T11:10:12;4.93;;;1.30;;
8094;SDS011;4090;49.270;8.696;2022-07-17T11:12:55;1.55;;;1.45;;
8094;SDS011;4090;49.270;8.696;2022-07-17T11:15:49;2.13;;;1.38;;
8094;SDS011;4090;49.270;8.696;2022-07-17T11:18:31;1.50;;;1.40;;
8094;SDS011;4090;49.270;8.696;2022-07-17T11:21:12;1.67;;;1.15;;
8094;SDS011;4090;49.270;8.696;2022-07-17T11:23:56;2.92;;;1.60;;
8094;SDS011;4090;49.270;8.696;2022-07-17T11:26:38;2.05;;;1.20;;
8094;SDS011;4090;49.270;8.696;2022-07-17T11:29:20;1.60;;;1.40;;
8094;SDS011;4090;49.270;8.696;2022-07-17T11:32:02;3.20;;;1.50;;
8094;SDS011;4090;49.270;8.696;2022-07-17T11:34:45;4.07;;;1.50;;
8094;SDS011;4090;49.270;8.696;2022-07-17T11:37:28;2.53;;;1.35;;
8094;SDS011;4090;49.270;8.696;2022-07-17T11:40:12;1.65;;;1.55;;
8094;SDS011;4090;49.270;8.696;2022-07-17T11:42:58;1.42;;;1.30;;
8094;SDS011;4090;49.270;8.696;2022-07-17T11:45:42;2.90;;;1.45;;
8094;SDS011;4090;49.270;8.696;2022-07-17T11:48:24;4.43;;;1.80;;
8094;SDS011;4090;49.270;8.696;2022-07-17T11:51:06;1.40;;;1.30;;
8094;SDS011;4090;49.270;8.696;2022-07-17T11:53:48;1.52;;;1.30;;
8094;SDS011;4090;49.270;8.696;2022-07-17T11:56:33;2.33;;;1.30;;
8094;SDS011;4090;49.270;8.696;2022-07-17T11:59:22;1.60;;;1.50;;
8094;SDS011;4090;49.270;8.696;2022-07-17T12:02:09;2.63;;;1.65;;
8094;SDS011;4090;49.270;8.696;2022-07-17T12:04:52;1.58;;;1.27;;
8094;SDS011;4090;49.270;8.696;2022-07-17T12:07:40;2.20;;;1.50;;
8094;SDS011;4090;49.270;8.696;2022-07-17T12:10:23;1.50;;;1.40;;
8094;SDS011;4090;49.270;8.696;2022-07-17T12:13:09;4.28;;;1.20;;
8094;SDS011;4090;49.270;8.696;2022-07-17T12:15:51;2.40;;;1.48;;
8094;SDS011;4090;49.270;8.696;2022-07-17T12:18:33;1.60;;;1.50;;
8094;SDS011;4090;49.270;8.696;2022-07-17T12:21:14;7.70;;;1.70;;
8094;SDS011;4090;49.270;8.696;2022-07-17T12:23:57;2.88;;;1.55;;
8094;SDS011;4090;49.270;8.696;2022-07-17T12:26:42;2.85;;;1.90;;
8094;SDS011;4090;49.270;8.696;2022-07-17T12:29:25;1.73;;;1.50;;
8094;SDS011;4090;49.270;8.696;2022-07-17T12:32:08;2.60;;;1.60;;
8094;SDS011;4090;49.270;8.696;2022-07-17T12:34:51;1.73;;;1.40;;
8094;SDS011;4090;49.270;8.696;2022-07-17T12:37:33;2.13;;;1.50;;
8094;SDS011;4090;49.270;8.696;2022-07-17T12:40:15;2.08;;;1.55;;
8094;SDS011;4090;49.270;8.696;2022-07-17T12:42:57;4.22;;;1.50;;
8094;SDS011;4090;49.270;8.696;2022-07-17T12:45:40;1.63;;;1.52;;
8094;SDS011;4090;49.270;8.696;2022-07-17T12:48:22;1.60;;;1.50;;
8094;SDS011;4090;49.270;8.696;2022-07-17T12:51:04;1.75;;;1.50;;
8094;SDS011;4090;49.270;8.696;2022-07-17T12:53:46;1.77;;;1.50;;
8094;SDS011;4090;49.270;8.696;2022-07-17T12:56:29;3.08;;;1.60;;
8094;SDS011;4090;49.270;8.696;2022-07-17T12:59:11;2.17;;;1.80;;
8094;SDS011;4090;49.270;8.696;2022-07-17T13:01:54;2.47;;;1.50;;
8094;SDS011;4090;49.270;8.696;2022-07-17T13:04:36;1.60;;;1.50;;
8094;SDS011;4090;49.270;8.696;2022-07-17T13:07:18;4.40;;;1.67;;
8094;SDS011;4090;49.270;8.696;2022-07-17T13:09:59;1.75;;;1.30;;
8094;SDS011;4090;49.270;8.696;2022-07-17T13:12:42;2.88;;;1.95;;
8094;SDS011;4090;49.270;8.696;2022-07-17T13:15:24;2.92;;;1.42;;
8094;SDS011;4090;49.270;8.696;2022-07-17T13:18:07;2.08;;;1.42;;
8094;SDS011;4090;49.270;8.696;2022-07-17T13:20:49;1.83;;;1.50;;
8094;SDS011;4090;49.270;8.696;2022-07-17T13:23:31;2.53;;;1.65;;
8094;SDS011;4090;49.270;8.696;2022-07-17T13:26:13;3.17;;;1.63;;
8094;SDS011;4090;49.270;8.696;2022-07-17T13:28:55;2.00;;;1.60;;
8094;SDS011;4090;49.270;8.696;2022-07-17T13:31:37;2.95;;;1.80;;
8094;SDS011;4090;49.270;8.696;2022-07-17T13:34:22;2.17;;;2.00;;
8094;SDS011;4090;49.270;8.696;2022-07-17T13:37:04;2.05;;;1.60;;
8094;SDS011;4090;49.270;8.696;2022-07-17T13:39:47;2.92;;;1.65;;
8094;SDS011;4090;49.270;8.696;2022-07-17T13:42:28;1.88;;;1.60;;
8094;SDS011;4090;49.270;8.696;2022-07-17T13:45:10;2.28;;;1.75;;
8094;SDS011;4090;49.270;8.696;2022-07-17T13:47:52;1.40;;;1.30;;
8094;SDS011;4090;49.270;8.696;2022-07-17T13:50:35;1.60;;;1.50;;
8094;SDS011;4090;49.270;8.696;2022-07-17T13:53:17;2.25;;;1.40;;
8094;SDS011;4090;49.270;8.696;2022-07-17T13:55:59;2.53;;;1.70;;
8094;SDS011;4090;49.270;8.696;2022-07-17T13:58:41;1.73;;;1.63;;
8094;SDS011;4090;49.270;8.696;2022-07-17T14:01:23;2.03;;;1.55;;
8094;SDS011;4090;49.270;8.696;2022-07-17T14:04:05;3.25;;;1.60;;
8094;SDS011;4090;49.270;8.696;2022-07-17T14:06:48;4.13;;;2.05;;
8094;SDS011;4090;49.270;8.696;2022-07-17T14:09:30;1.60;;;1.50;;
8094;SDS011;4090;49.270;8.696;2022-07-17T14:12:12;3.67;;;1.40;;
8094;SDS011;4090;49.270;8.696;2022-07-17T14:14:54;1.98;;;1.60;;
8094;SDS011;4090;49.270;8.696;2022-07-17T14:17:36;1.83;;;1.63;;
8094;SDS011;4090;49.270;8.696;2022-07-17T14:20:18;1.92;;;1.75;;
8094;SDS011;4090;49.270;8.696;2022-07-17T14:23:01;3.22;;;1.70;;
8094;SDS011;4090;49.270;8.696;2022-07-17T14:25:43;1.65;;;1.55;;
8094;SDS011;4090;49.270;8.696;2022-07-17T14:28:25;2.25;;;1.83;;
8094;SDS011;4090;49.270;8.696;2022-07-17T14:31:07;3.30;;;1.60;;
8094;SDS011;4090;49.270;8.696;2022-07-17T14:33:49;2.17;;;1.52;;
8094;SDS011;4090;49.270;8.696;2022-07-17T14:36:31;3.55;;;1.73;;
8094;SDS011;4090;49.270;8.696;2022-07-17T14:39:14;2.80;;;1.80;;
8094;SDS011;4090;49.270;8.696;2022-07-17T14:41:56;3.13;;;1.77;;
8094;SDS011;4090;49.270;8.696;2022-07-17T14:44:38;2.65;;;1.70;;
8094;SDS011;4090;49.270;8.696;2022-07-17T14:47:21;1.92;;;1.63;;
8094;SDS011;4090;49.270;8.696;2022-07-17T14:50:03;4.72;;;1.80;;
8094;SDS011;4090;49.270;8.696;2022-07-17T14:52:45;4.07;;;1.80;;
8094;SDS011;4090;49.270;8.696;2022-07-17T14:55:28;2.00;;;1.73;;
8094;SDS011;4090;49.270;8.696;2022-07-17T14:58:10;2.28;;;1.58;;
8094;SDS011;4090;49.270;8.696;2022-07-17T15:00:52;1.88;;;1.75;;
8094;SDS011;4090;49.270;8.696;2022-07-17T15:03:35;1.77;;;1.63;;
8094;SDS011;4090;49.270;8.696;2022-07-17T15:06:17;5.60;;;1.92;;
8094;SDS011;4090;49.270;8.696;2022-07-17T15:08:58;2.53;;;1.70;;
8094;SDS011;4090;49.270;8.696;2022-07-17T15:11:42;2.75;;;1.50;;
8094;SDS011;4090;49.270;8.696;2022-07-17T15:14:23;2.38;;;1.50;;
8094;SDS011;4090;49.270;8.696;2022-07-17T15:17:05;9.27;;;2.20;;
8094;SDS011;4090;49.270;8.696;2022-07-17T15:19:47;4.13;;;1.63;;
8094;SDS011;4090;49.270;8.696;2022-07-17T15:22:29;3.60;;;1.70;;
8094;SDS011;4090;49.270;8.696;2022-07-17T15:25:11;1.73;;;1.50;;
8094;SDS011;4090;49.270;8.696;2022-07-17T15:27:54;2.78;;;1.60;;
8094;SDS011;4090;49.270;8.696;2022-07-17T15:30:36;1.90;;;1.67;;
8094;SDS011;4090;49.270;8.696;2022-07-17T15:33:17;2.42;;;1.83;;
8094;SDS011;4090;49.270;8.696;2022-07-17T15:35:59;2.95;;;1.90;;
8094;SDS011;4090;49.270;8.696;2022-07-17T15:38:41;2.10;;;1.85;;
8094;SDS011;4090;49.270;8.696;2022-07-17T15:41:23;2.95;;;1.80;;
8094;SDS011;4090;49.270;8.696;2022-07-17T15:44:06;1.60;;;1.50;;
8094;SDS011;4090;49.270;8.696;2022-07-17T15:46:49;3.80;;;1.80;;
8094;SDS011;4090;49.270;8.696;2022-07-17T15:49:30;2.55;;;1.70;;
8094;SDS011;4090;49.270;8.696;2022-07-17T15:52:12;10.88;;;2.35;;
8094;SDS011;4090;49.270;8.696;2022-07-17T15:54:54;2.35;;;1.50;;
8094;SDS011;4090;49.270;8.696;2022-07-17T15:57:36;1.77;;;1.55;;
8094;SDS011;4090;49.270;8.696;2022-07-17T16:00:20;2.67;;;1.60;;
8094;SDS011;4090;49.270;8.696;2022-07-17T16:03:03;2.25;;;1.70;;
8094;SDS011;4090;49.270;8.696;2022-07-17T16:05:44;2.03;;;1.67;;
8094;SDS011;4090;49.270;8.696;2022-07-17T16:08:26;2.13;;;1.83;;
8094;SDS011;4090;49.270;8.696;2022-07-17T16:11:08;3.15;;;1.75;;
8094;SDS011;4090;49.270;8.696;2022-07-17T16:13:50;2.22;;;1.60;;
8094;SDS011;4090;49.270;8.696;2022-07-17T16:16:33;4.28;;;1.83;;
8094;SDS011;4090;49.270;8.696;2022-07-17T16:19:15;2.90;;;1.60;;
8094;SDS011;4090;49.270;8.696;2022-07-17T16:21:57;3.42;;;2.00;;
8094;SDS011;4090;49.270;8.696;2022-07-17T16:24:39;6.32;;;1.92;;
8094;SDS011;4090;49.270;8.696;2022-07-17T16:27:21;2.22;;;1.63;;
8094;SDS011;4090;49.270;8.696;2022-07-17T16:30:03;1.50;;;1.40;;
8094;SDS011;4090;49.270;8.696;2022-07-17T16:32:47;3.50;;;1.80;;
8094;SDS011;4090;49.270;8.696;2022-07-17T16:35:29;2.42;;;1.95;;
8094;SDS011;4090;49.270;8.696;2022-07-17T16:38:10;2.15;;;1.60;;
8094;SDS011;4090;49.270;8.696;2022-07-17T16:40:52;2.13;;;1.75;;
8094;SDS011;4090;49.270;8.696;2022-07-17T16:43:34;2.63;;;1.50;;
8094;SDS011;4090;49.270;8.696;2022-07-17T16:46:16;3.17;;;1.58;;
8094;SDS011;4090;49.270;8.696;2022-07-17T16:48:59;1.70;;;1.60;;